createdAt,value
2018-05-31T00:01:38.537Z,20.77
2018-05-31T00:04:06.813Z,20.73
2018-05-31T00:06:34.282Z,20.64
2018-05-31T00:09:01.694Z,20.67
2018-05-31T00:11:29.097Z,20.55
2018-05-31T00:13:56.520Z,20.44
2018-05-31T00:16:24.007Z,20.33
2018-05-31T00:18:51.405Z,20.29
2018-05-31T00:21:18.814Z,20.37
2018-05-31T00:23:46.230Z,20.43
2018-05-31T00:26:13.646Z,20.47
2018-05-31T00:28:41.036Z,20.48
2018-05-31T00:31:08.550Z,20.29
2018-05-31T00:33:35.970Z,20.23
2018-05-31T00:36:03.437Z,20.18
2018-05-31T00:38:30.898Z,20.26
2018-05-31T00:40:58.349Z,20.28
2018-05-31T00:43:25.762Z,20.17
2018-05-31T00:45:53.300Z,20.09
2018-05-31T00:48:20.728Z,20.23
2018-05-31T00:50:48.145Z,20.20
2018-05-31T00:53:15.537Z,20.28
2018-05-31T00:55:54.725Z,20.25
2018-05-31T00:58:22.140Z,20.20
2018-05-31T01:00:49.541Z,20.21
2018-05-31T01:03:17.045Z,20.27
2018-05-31T01:05:44.538Z,20.09
2018-05-31T01:08:11.961Z,20.08
2018-05-31T01:10:39.438Z,20.08
2018-05-31T01:13:06.869Z,20.15
2018-05-31T01:15:34.349Z,20.03
2018-05-31T01:18:01.785Z,19.96
2018-05-31T01:20:29.183Z,19.95
2018-05-31T01:22:56.604Z,19.94
2018-05-31T01:25:24.078Z,19.82
2018-05-31T01:27:51.504Z,19.70
2018-05-31T01:30:18.910Z,19.62
2018-05-31T01:32:46.350Z,19.58
2018-05-31T01:35:13.744Z,19.04
2018-05-31T01:37:41.145Z,18.48
2018-05-31T01:40:08.541Z,18.57
2018-05-31T01:42:35.949Z,18.68
2018-05-31T01:45:03.408Z,18.73
2018-05-31T01:47:30.969Z,18.89
2018-05-31T01:49:58.369Z,18.95
2018-05-31T01:52:25.800Z,19.06
2018-05-31T01:54:53.261Z,19.18
2018-05-31T01:57:20.705Z,19.12
2018-05-31T01:59:48.186Z,19.13
2018-05-31T02:02:15.621Z,19.15
2018-05-31T02:04:43.013Z,19.08
2018-05-31T02:07:10.426Z,18.91
2018-05-31T02:09:37.905Z,18.79
2018-05-31T02:12:05.345Z,18.88
2018-05-31T02:14:32.825Z,19.00
2018-05-31T02:17:00.301Z,18.98
2018-05-31T02:19:27.717Z,19.08
2018-05-31T02:21:55.204Z,19.10
2018-05-31T02:24:22.601Z,18.86
2018-05-31T02:26:50.005Z,18.89
2018-05-31T02:29:17.412Z,19.01
2018-05-31T02:31:44.821Z,18.79
2018-05-31T02:34:12.277Z,18.84
2018-05-31T02:36:40.144Z,18.76
2018-05-31T02:39:07.729Z,18.77
2018-05-31T02:41:35.137Z,18.76
2018-05-31T02:44:02.613Z,18.83
2018-05-31T02:46:30.069Z,18.86
2018-05-31T02:48:57.469Z,18.91
2018-05-31T02:51:24.880Z,18.87
2018-05-31T02:53:52.428Z,18.89
2018-05-31T02:56:20.417Z,18.96
2018-05-31T02:58:47.817Z,18.96
2018-05-31T03:01:15.241Z,18.94
2018-05-31T03:03:42.647Z,18.95
2018-05-31T03:06:10.040Z,18.88
2018-05-31T03:08:37.445Z,18.86
2018-05-31T03:11:04.850Z,18.92
2018-05-31T03:13:32.253Z,18.82
2018-05-31T03:15:59.673Z,18.80
2018-05-31T03:18:27.085Z,18.84
2018-05-31T03:20:54.491Z,18.90
2018-05-31T03:23:21.967Z,18.95
2018-05-31T03:25:49.356Z,18.96
2018-05-31T03:28:16.776Z,18.91
2018-05-31T03:30:44.210Z,18.96
2018-05-31T03:33:11.683Z,19.07
2018-05-31T03:35:39.099Z,19.13
2018-05-31T03:38:06.601Z,19.12
2018-05-31T03:40:34.005Z,19.04
2018-05-31T03:43:01.517Z,19.09
2018-05-31T03:45:28.956Z,19.21
2018-05-31T03:47:56.489Z,19.32
2018-05-31T03:50:23.981Z,19.37
2018-05-31T03:52:51.396Z,19.39
2018-05-31T03:55:18.917Z,19.21
2018-05-31T03:57:46.984Z,19.23
2018-05-31T04:00:14.422Z,19.26
2018-05-31T04:02:41.849Z,19.43
2018-05-31T04:05:09.321Z,19.52
2018-05-31T04:07:36.753Z,19.71
2018-05-31T04:10:04.171Z,19.82
2018-05-31T04:12:31.576Z,19.97
2018-05-31T04:14:58.991Z,20.12
2018-05-31T04:17:26.464Z,20.25
2018-05-31T04:19:53.865Z,20.18
2018-05-31T04:22:21.398Z,20.34
2018-05-31T04:24:48.793Z,20.49
2018-05-31T04:27:16.203Z,20.56
2018-05-31T04:29:43.598Z,20.74
2018-05-31T04:32:11.119Z,20.94
2018-05-31T04:34:38.528Z,21.12
2018-05-31T04:37:05.925Z,21.20
2018-05-31T04:39:33.330Z,21.44
2018-05-31T04:42:00.725Z,21.49
2018-05-31T04:44:28.185Z,21.57
2018-05-31T04:46:55.589Z,21.61
2018-05-31T04:49:23.097Z,21.74
2018-05-31T04:51:50.578Z,21.91
2018-05-31T04:54:17.981Z,22.03
2018-05-31T04:56:45.390Z,22.10
2018-05-31T04:59:12.818Z,22.13
2018-05-31T05:01:40.309Z,22.16
2018-05-31T05:04:07.713Z,22.35
2018-05-31T05:06:35.109Z,22.62
2018-05-31T05:09:02.538Z,22.89
2018-05-31T05:11:29.941Z,22.93
2018-05-31T05:13:57.357Z,23.13
2018-05-31T05:16:24.757Z,23.33
2018-05-31T05:18:52.157Z,23.91
2018-05-31T05:21:19.557Z,25.12
2018-05-31T05:23:46.961Z,26.62
2018-05-31T05:26:14.370Z,27.49
2018-05-31T05:28:41.794Z,28.19
2018-05-31T05:31:09.193Z,29.05
2018-05-31T05:33:36.616Z,30.00
2018-05-31T05:36:04.064Z,31.00
2018-05-31T05:38:31.464Z,31.93
2018-05-31T05:40:58.885Z,32.76
2018-05-31T05:43:26.295Z,32.75
2018-05-31T05:45:53.797Z,33.59
2018-05-31T05:48:21.322Z,33.90
2018-05-31T05:50:48.734Z,34.26
2018-05-31T05:53:16.303Z,34.77
2018-05-31T05:55:43.734Z,34.52
2018-05-31T05:58:11.145Z,34.55
2018-05-31T06:00:38.545Z,34.02
2018-05-31T06:03:06.000Z,33.73
2018-05-31T06:05:33.444Z,34.41
2018-05-31T06:08:00.900Z,34.53
2018-05-31T06:10:28.360Z,35.10
2018-05-31T06:12:55.817Z,35.15
2018-05-31T06:15:23.279Z,35.41
2018-05-31T06:17:50.677Z,35.51
2018-05-31T06:20:18.192Z,35.41
2018-05-31T06:22:45.665Z,34.78
2018-05-31T06:25:13.082Z,35.10
2018-05-31T06:27:40.562Z,34.85
2018-05-31T06:30:08.024Z,35.19
2018-05-31T06:32:35.406Z,34.98
2018-05-31T06:35:02.829Z,35.13
2018-05-31T06:37:30.229Z,36.02
2018-05-31T06:39:57.741Z,36.14
2018-05-31T06:42:25.212Z,36.31
2018-05-31T06:44:52.625Z,35.48
2018-05-31T06:47:20.117Z,35.77
2018-05-31T06:49:47.524Z,35.80
2018-05-31T06:52:15.029Z,35.86
2018-05-31T06:54:42.603Z,35.89
2018-05-31T06:57:09.986Z,36.24
2018-05-31T06:59:37.405Z,37.24
2018-05-31T07:02:04.805Z,36.93
2018-05-31T07:04:32.219Z,36.43
2018-05-31T07:06:59.621Z,36.34
2018-05-31T07:09:27.129Z,36.57
2018-05-31T07:11:54.577Z,36.56
2018-05-31T07:14:21.989Z,36.61
2018-05-31T07:16:49.397Z,36.74
2018-05-31T07:19:16.857Z,36.99
2018-05-31T07:21:44.269Z,36.99
2018-05-31T07:24:11.769Z,37.31
2018-05-31T07:26:39.156Z,37.17
2018-05-31T07:29:06.572Z,36.80
2018-05-31T07:31:34.056Z,36.36
2018-05-31T07:34:01.460Z,35.82
2018-05-31T07:36:28.952Z,36.56
2018-05-31T07:38:56.408Z,37.00
2018-05-31T07:41:23.865Z,37.15
2018-05-31T07:43:51.276Z,37.42
2018-05-31T07:46:18.686Z,37.76
2018-05-31T07:48:46.087Z,37.60
2018-05-31T07:51:13.519Z,37.38
2018-05-31T07:53:40.960Z,37.43
2018-05-31T07:56:08.353Z,37.39
2018-05-31T07:58:35.865Z,37.67
2018-05-31T08:01:03.253Z,37.83
2018-05-31T08:03:30.677Z,37.44
2018-05-31T08:05:58.162Z,36.73
2018-05-31T08:08:25.597Z,36.46
2018-05-31T08:10:53.071Z,36.63
2018-05-31T08:13:20.496Z,36.27
2018-05-31T08:15:48.153Z,36.38
2018-05-31T08:18:15.642Z,36.22
2018-05-31T08:20:43.086Z,35.86
2018-05-31T08:23:11.416Z,35.11
2018-05-31T08:25:38.921Z,35.06
2018-05-31T08:28:06.313Z,34.90
2018-05-31T08:30:33.721Z,34.93
2018-05-31T08:33:01.154Z,34.72
2018-05-31T08:35:28.548Z,34.60
2018-05-31T08:37:56.034Z,34.69
2018-05-31T08:40:23.440Z,34.31
2018-05-31T08:42:50.874Z,34.28
2018-05-31T08:45:18.382Z,34.07
2018-05-31T08:47:45.772Z,33.86
2018-05-31T08:50:13.221Z,34.19
2018-05-31T08:52:40.609Z,34.44
2018-05-31T08:55:08.105Z,34.62
2018-05-31T08:57:35.494Z,34.82
2018-05-31T09:00:02.897Z,33.97
2018-05-31T09:02:30.381Z,34.05
2018-05-31T09:04:57.791Z,34.42
2018-05-31T09:07:25.300Z,34.45
2018-05-31T09:09:52.706Z,34.24
2018-05-31T09:12:20.097Z,34.22
2018-05-31T09:14:47.586Z,34.04
2018-05-31T09:17:14.986Z,34.08
2018-05-31T09:19:43.362Z,34.10
2018-05-31T09:22:10.857Z,34.16
2018-05-31T09:24:38.253Z,33.90
2018-05-31T09:27:05.652Z,33.68
2018-05-31T09:29:33.042Z,33.98
2018-05-31T09:32:00.522Z,33.66
2018-05-31T09:34:27.920Z,33.52
2018-05-31T09:36:55.421Z,33.72
2018-05-31T09:39:22.803Z,33.90
2018-05-31T09:41:50.218Z,33.88
2018-05-31T09:44:17.680Z,33.68
2018-05-31T09:46:45.063Z,33.57
2018-05-31T09:49:12.457Z,33.19
2018-05-31T09:51:39.852Z,33.47
2018-05-31T09:54:07.301Z,33.58
2018-05-31T09:56:34.776Z,33.64
2018-05-31T09:59:02.176Z,33.58
2018-05-31T10:01:29.693Z,33.47
2018-05-31T10:03:57.094Z,33.38
2018-05-31T10:06:24.485Z,33.18
2018-05-31T10:08:51.892Z,32.90
2018-05-31T10:11:19.300Z,32.74
2018-05-31T10:13:46.682Z,32.80
2018-05-31T10:16:14.101Z,32.89
2018-05-31T10:18:41.517Z,33.40
2018-05-31T10:21:08.901Z,33.59
2018-05-31T10:23:36.290Z,33.89
2018-05-31T10:26:03.712Z,33.98
2018-05-31T10:28:31.122Z,34.14
2018-05-31T10:30:58.509Z,34.16
2018-05-31T10:33:26.012Z,34.20
2018-05-31T10:35:53.429Z,34.08
2018-05-31T10:38:20.819Z,34.35
2018-05-31T10:40:48.217Z,34.69
2018-05-31T10:43:15.626Z,34.65
2018-05-31T10:45:43.023Z,34.48
2018-05-31T10:48:10.965Z,34.95
2018-05-31T10:50:38.357Z,35.09
2018-05-31T10:53:05.745Z,34.80
2018-05-31T10:55:33.239Z,34.55
2018-05-31T10:58:00.637Z,34.26
2018-05-31T11:00:28.087Z,34.26
2018-05-31T11:02:55.473Z,34.03
2018-05-31T11:05:22.962Z,33.55
2018-05-31T11:07:50.336Z,33.30
2018-05-31T11:10:17.772Z,33.23
2018-05-31T11:12:45.218Z,33.08
2018-05-31T11:15:12.622Z,33.30
2018-05-31T11:17:40.009Z,33.63
2018-05-31T11:20:07.486Z,34.08
2018-05-31T11:22:34.965Z,34.14
2018-05-31T11:25:02.379Z,34.41
2018-05-31T11:27:29.757Z,34.58
2018-05-31T11:29:57.213Z,34.49
2018-05-31T11:32:24.627Z,34.71
2018-05-31T11:34:52.045Z,34.86
2018-05-31T11:37:19.437Z,35.10
2018-05-31T11:39:46.847Z,35.00
2018-05-31T11:42:14.238Z,34.53
2018-05-31T11:44:41.630Z,34.17
2018-05-31T11:47:09.227Z,33.75
2018-05-31T11:49:36.621Z,33.39
2018-05-31T11:52:04.035Z,33.45
2018-05-31T11:54:31.409Z,33.18
2018-05-31T11:56:58.805Z,32.84
2018-05-31T11:59:26.198Z,32.48
2018-05-31T12:01:53.601Z,32.73
2018-05-31T12:04:20.993Z,33.07
2018-05-31T12:06:48.478Z,33.12
2018-05-31T12:09:15.869Z,33.31
2018-05-31T12:11:43.404Z,33.70
2018-05-31T12:14:10.805Z,33.89
2018-05-31T12:16:38.209Z,33.79
2018-05-31T12:19:05.660Z,33.56
2018-05-31T12:21:33.106Z,33.37
2018-05-31T12:24:00.517Z,33.07
2018-05-31T12:26:27.937Z,33.46
2018-05-31T12:28:55.323Z,33.69
2018-05-31T12:31:22.848Z,33.90
2018-05-31T12:33:50.229Z,34.14
2018-05-31T12:36:17.673Z,34.18
2018-05-31T12:38:45.069Z,34.07
2018-05-31T12:41:12.562Z,34.10
2018-05-31T12:43:39.975Z,34.10
2018-05-31T12:46:07.373Z,34.05
2018-05-31T12:48:34.793Z,34.30
2018-05-31T12:51:02.201Z,34.52
2018-05-31T12:53:29.589Z,34.76
2018-05-31T12:55:56.994Z,35.14
2018-05-31T12:58:24.393Z,35.15
2018-05-31T13:00:51.811Z,34.96
2018-05-31T13:03:19.188Z,34.83
2018-05-31T13:05:46.685Z,35.01
2018-05-31T13:08:14.045Z,35.23
2018-05-31T13:10:41.450Z,35.51
2018-05-31T13:13:08.894Z,35.20
2018-05-31T13:15:36.353Z,34.62
2018-05-31T13:18:03.761Z,34.16
2018-05-31T13:20:31.178Z,34.11
2018-05-31T13:22:58.561Z,34.34
2018-05-31T13:25:25.953Z,34.48
2018-05-31T13:27:53.368Z,34.47
2018-05-31T13:30:20.790Z,34.34
2018-05-31T13:32:48.180Z,34.41
2018-05-31T13:35:15.601Z,34.36
2018-05-31T13:37:43.019Z,34.62
2018-05-31T13:40:10.517Z,34.50
2018-05-31T13:42:37.997Z,34.43
2018-05-31T13:45:05.409Z,34.57
2018-05-31T13:47:32.809Z,34.53
2018-05-31T13:50:00.217Z,34.78
2018-05-31T13:52:27.700Z,34.71
2018-05-31T13:54:55.156Z,34.87
2018-05-31T13:57:22.633Z,35.03
2018-05-31T13:59:50.035Z,34.68
2018-05-31T14:02:17.453Z,34.51
2018-05-31T14:04:44.828Z,34.55
2018-05-31T14:07:12.265Z,34.46
2018-05-31T14:09:39.711Z,34.61
2018-05-31T14:12:07.113Z,34.91
2018-05-31T14:14:34.493Z,35.14
2018-05-31T14:17:01.990Z,35.42
2018-05-31T14:19:29.397Z,35.65
2018-05-31T14:21:56.886Z,35.86
2018-05-31T14:24:24.317Z,35.79
2018-05-31T14:26:51.730Z,35.96
2018-05-31T14:29:19.169Z,35.89
2018-05-31T14:31:46.617Z,36.22
2018-05-31T14:34:14.006Z,36.20
2018-05-31T14:36:41.405Z,36.32
2018-05-31T14:39:08.882Z,36.53
2018-05-31T14:41:36.300Z,36.62
2018-05-31T14:44:03.704Z,35.96
2018-05-31T14:46:31.141Z,35.68
2018-05-31T14:48:58.604Z,35.27
2018-05-31T14:51:26.183Z,35.12
2018-05-31T14:53:53.566Z,35.10
2018-05-31T14:56:20.981Z,34.87
2018-05-31T14:58:48.553Z,34.84
2018-05-31T15:01:15.953Z,35.04
2018-05-31T15:03:43.452Z,34.99
2018-05-31T15:06:10.937Z,34.99
2018-05-31T15:08:38.361Z,34.93
2018-05-31T15:11:05.830Z,34.74
2018-05-31T15:13:33.214Z,34.90
2018-05-31T15:16:00.618Z,34.65
2018-05-31T15:18:28.043Z,34.35
2018-05-31T15:20:55.462Z,34.28
2018-05-31T15:23:22.853Z,34.54
2018-05-31T15:25:50.248Z,34.66
2018-05-31T15:28:17.644Z,34.73
2018-05-31T15:30:45.049Z,34.84
2018-05-31T15:33:12.529Z,35.21
2018-05-31T15:35:39.940Z,35.32
2018-05-31T15:38:07.365Z,35.45
2018-05-31T15:40:34.801Z,35.17
2018-05-31T15:43:02.219Z,35.14
2018-05-31T15:45:29.609Z,35.13
2018-05-31T15:47:57.041Z,35.11
2018-05-31T15:50:24.457Z,35.01
2018-05-31T15:52:51.895Z,34.86
2018-05-31T15:55:19.276Z,34.90
2018-05-31T15:57:46.898Z,34.52
2018-05-31T16:00:14.379Z,34.89
2018-05-31T16:02:41.763Z,35.14
2018-05-31T16:05:09.174Z,35.11
2018-05-31T16:07:36.797Z,34.13
2018-05-31T16:10:04.282Z,32.17
2018-05-31T16:12:31.685Z,32.11
2018-05-31T16:14:59.157Z,31.82
2018-05-31T16:17:26.619Z,31.10
2018-05-31T16:19:54.022Z,30.86
2018-05-31T16:22:22.125Z,31.11
2018-05-31T16:24:49.604Z,30.98
2018-05-31T16:27:17.078Z,31.32
2018-05-31T16:29:44.469Z,31.51
2018-05-31T16:32:11.882Z,31.62
2018-05-31T16:34:39.360Z,31.57
2018-05-31T16:37:06.801Z,31.32
2018-05-31T16:39:34.262Z,30.57
2018-05-31T16:42:01.705Z,29.94
2018-05-31T16:44:29.101Z,29.54
2018-05-31T16:46:56.501Z,29.47
2018-05-31T16:49:24.007Z,29.12
2018-05-31T16:51:51.408Z,29.07
2018-05-31T16:54:18.920Z,28.99
2018-05-31T16:56:46.430Z,29.15
2018-05-31T16:59:13.899Z,28.42
2018-05-31T17:01:41.445Z,28.32
2018-05-31T17:04:08.850Z,27.96
2018-05-31T17:06:36.461Z,27.72
2018-05-31T17:09:03.869Z,27.46
2018-05-31T17:11:31.274Z,26.96
2018-05-31T17:13:58.679Z,27.08
2018-05-31T17:16:26.091Z,26.95
2018-05-31T17:18:53.485Z,26.86
2018-05-31T17:21:21.006Z,26.70
2018-05-31T17:23:48.421Z,26.62
2018-05-31T17:26:15.931Z,26.50
2018-05-31T17:28:43.384Z,26.44
2018-05-31T17:31:10.802Z,26.34
2018-05-31T17:33:38.200Z,26.36
2018-05-31T17:36:05.603Z,26.67
2018-05-31T17:38:33.007Z,26.66
2018-05-31T17:41:00.574Z,26.76
2018-05-31T17:43:28.005Z,26.62
2018-05-31T17:45:55.412Z,26.64
2018-05-31T17:48:22.833Z,26.79
2018-05-31T17:50:50.220Z,26.83
2018-05-31T17:53:17.630Z,26.95
2018-05-31T17:55:45.074Z,27.04
2018-05-31T17:58:12.561Z,27.06
2018-05-31T18:00:40.972Z,27.12
2018-05-31T18:03:08.385Z,27.25
2018-05-31T18:05:35.808Z,27.35
2018-05-31T18:08:03.273Z,27.36
2018-05-31T18:10:30.668Z,27.05
2018-05-31T18:12:58.074Z,26.84
2018-05-31T18:15:25.510Z,26.69
2018-05-31T18:17:52.901Z,26.42
2018-05-31T18:20:20.427Z,26.33
2018-05-31T18:22:47.992Z,26.48
2018-05-31T18:25:15.596Z,26.73
2018-05-31T18:27:43.281Z,26.72
2018-05-31T18:30:10.686Z,26.63
2018-05-31T18:32:38.085Z,26.62
2018-05-31T18:35:05.514Z,26.61
2018-05-31T18:37:32.916Z,26.69
2018-05-31T18:40:00.373Z,26.62
2018-05-31T18:42:27.790Z,26.28
2018-05-31T18:44:55.270Z,26.03
2018-05-31T18:47:22.686Z,25.92
2018-05-31T18:49:50.077Z,25.87
2018-05-31T18:52:17.523Z,26.16
2018-05-31T18:54:44.970Z,26.35
2018-05-31T18:57:12.433Z,26.48
2018-05-31T18:59:39.846Z,26.41
2018-05-31T19:02:07.284Z,26.48
2018-05-31T19:04:34.742Z,26.48
2018-05-31T19:07:02.178Z,26.38
2018-05-31T19:09:36.986Z,26.10
2018-05-31T19:12:04.478Z,25.70
2018-05-31T19:14:31.889Z,25.35
2018-05-31T19:16:59.414Z,25.10
2018-05-31T19:19:32.421Z,25.16
2018-05-31T19:22:00.012Z,25.00
2018-05-31T19:24:33.114Z,24.99
2018-05-31T19:27:00.519Z,25.08
2018-05-31T19:29:27.953Z,25.10
2018-05-31T19:31:55.361Z,25.12
2018-05-31T19:34:22.866Z,25.05
2018-05-31T19:36:57.177Z,24.87
2018-05-31T19:39:24.632Z,24.64
2018-05-31T19:41:52.105Z,24.59
2018-05-31T19:44:25.123Z,24.86
2018-05-31T19:46:52.547Z,24.72
2018-05-31T19:49:19.985Z,24.64
2018-05-31T19:51:52.929Z,24.59
2018-05-31T19:54:20.340Z,24.42
2018-05-31T19:56:47.742Z,24.26
2018-05-31T19:59:20.792Z,24.22
2018-05-31T20:01:53.925Z,24.12
2018-05-31T20:04:21.332Z,24.07
2018-05-31T20:06:48.788Z,23.97
2018-05-31T20:09:16.209Z,24.21
2018-05-31T20:11:43.634Z,23.98
2018-05-31T20:14:11.045Z,24.06
2018-05-31T20:16:38.438Z,24.19
2018-05-31T20:19:05.844Z,24.31
2018-05-31T20:21:33.322Z,24.01
2018-05-31T20:24:00.785Z,23.92
2018-05-31T20:26:28.193Z,23.95
2018-05-31T20:28:55.721Z,23.78
2018-05-31T20:31:23.185Z,23.96
2018-05-31T20:33:50.622Z,24.03
2018-05-31T20:36:18.024Z,24.10
2018-05-31T20:38:45.465Z,24.25
2018-05-31T20:41:12.873Z,24.35
2018-05-31T20:43:40.290Z,24.44
2018-05-31T20:46:07.704Z,24.52
2018-05-31T20:48:35.105Z,24.41
2018-05-31T20:51:02.644Z,24.27
2018-05-31T20:53:30.067Z,24.32
2018-05-31T20:55:57.461Z,24.17
2018-05-31T20:58:24.865Z,24.29
2018-05-31T21:00:52.351Z,24.44
2018-05-31T21:03:19.789Z,24.34
2018-05-31T21:05:47.188Z,24.46
2018-05-31T21:08:14.588Z,24.53
2018-05-31T21:10:41.994Z,24.53
2018-05-31T21:13:09.401Z,24.67
2018-05-31T21:15:36.824Z,24.57
2018-05-31T21:18:04.257Z,24.63
2018-05-31T21:20:31.727Z,24.65
2018-05-31T21:22:59.136Z,24.62
2018-05-31T21:25:26.532Z,24.65
2018-05-31T21:27:53.937Z,24.64
2018-05-31T21:30:21.458Z,24.58
2018-05-31T21:32:48.969Z,24.57
2018-05-31T21:35:16.426Z,24.54
2018-05-31T21:37:44.718Z,24.50
2018-05-31T21:40:12.158Z,24.46
2018-05-31T21:42:39.558Z,24.43
2018-05-31T21:45:07.050Z,24.19
2018-05-31T21:47:34.535Z,24.27
2018-05-31T21:50:01.939Z,24.16
2018-05-31T21:52:29.353Z,24.18
2018-05-31T21:54:56.820Z,24.02
2018-05-31T21:57:24.258Z,24.03
2018-05-31T21:59:51.693Z,24.14
2018-05-31T22:02:19.185Z,24.10
2018-05-31T22:04:46.641Z,24.11
2018-05-31T22:07:14.036Z,24.02
2018-05-31T22:09:41.465Z,23.97
2018-05-31T22:14:42.832Z,23.93
2018-05-31T22:17:10.258Z,23.82
2018-05-31T22:19:37.664Z,23.70
2018-05-31T22:22:05.063Z,23.67
2018-05-31T22:24:32.476Z,23.46
2018-05-31T22:26:59.904Z,23.40
2018-05-31T22:29:27.305Z,23.23
2018-05-31T22:31:54.718Z,23.17
2018-05-31T22:34:22.158Z,23.25
2018-05-31T22:36:49.615Z,23.42
2018-05-31T22:39:17.069Z,23.39
2018-05-31T22:41:44.526Z,23.49
2018-05-31T22:44:11.933Z,23.55
2018-05-31T22:46:39.330Z,23.64
2018-05-31T22:49:06.745Z,23.65
2018-05-31T22:51:34.132Z,23.51
2018-05-31T22:54:01.610Z,23.58
2018-05-31T22:56:29.014Z,23.60
2018-05-31T22:58:56.431Z,23.61
2018-05-31T23:01:23.880Z,23.43
2018-05-31T23:03:51.352Z,23.44
2018-05-31T23:06:19.557Z,23.24
2018-05-31T23:08:46.957Z,23.29
2018-05-31T23:11:14.425Z,23.29
2018-05-31T23:13:41.897Z,23.19
2018-05-31T23:16:09.336Z,23.27
2018-05-31T23:18:36.758Z,23.29
2018-05-31T23:21:04.270Z,23.18
2018-05-31T23:23:31.668Z,23.31
2018-05-31T23:25:59.076Z,23.43
2018-05-31T23:28:26.481Z,23.54
2018-05-31T23:30:53.897Z,23.57
2018-05-31T23:33:21.302Z,23.50
2018-05-31T23:35:48.808Z,23.50
2018-05-31T23:38:16.220Z,23.49
2018-05-31T23:40:43.697Z,23.54
2018-05-31T23:43:11.189Z,23.54
2018-05-31T23:45:38.615Z,23.49
2018-05-31T23:48:06.015Z,23.45
2018-05-31T23:50:33.422Z,23.15
2018-05-31T23:53:00.897Z,23.18
2018-05-31T23:55:28.339Z,23.06
2018-05-31T23:57:55.737Z,22.89
